Time;durP1;ratioP1;P1;durP2;ratioP2;P2;SDS_P1;SDS_P2;PMS_P1;PMS_P2;Temp;Humidity;BMP_temperature;BMP_pressure;BME280_temperature;BME280_humidity;BME280_pressure;Samples;Min_cycle;Max_cycle;Signal;HPM_P1;HPM_P2
2022/11/23 00:01:28;;;;;;;;;;;3.00;99.90;;;;;;5057362;28;19952;-68
2022/11/23 00:03:58;;;;;;;;;;;3.00;99.90;;;;;;5066582;28;19960;-68
2022/11/23 00:06:25;;;;;;;;;;;2.90;99.90;;;;;;5066266;28;20231;-68
2022/11/23 00:08:53;;;;;;;;;;;2.90;99.90;;;;;;5066739;28;20176;-68
2022/11/23 00:11:20;;;;;;;;;;;2.90;99.90;;;;;;5066707;28;19963;-68
2022/11/23 00:13:46;;;;;;;;;;;2.80;99.90;;;;;;5066141;28;19979;-68
2022/11/23 00:16:14;;;;;;;;;;;2.90;99.90;;;;;;5065310;28;19921;-68
2022/11/23 00:18:42;;;;;;;;;;;2.80;99.90;;;;;;5065709;28;20000;-68
2022/11/23 00:21:10;;;;;;;;;;;2.80;99.90;;;;;;5066006;28;19929;-68
2022/11/23 00:23:37;;;;;;;;;;;2.80;99.90;;;;;;5066131;28;19948;-68
2022/11/23 00:26:04;;;;;;;;;;;2.80;99.90;;;;;;5066176;28;19966;-68
2022/11/23 00:28:30;;;;;;;;;;;2.80;99.90;;;;;;5066466;28;19952;-68
2022/11/23 00:30:57;;;;;;;;;;;2.80;99.90;;;;;;5065572;28;19999;-68
2022/11/23 00:33:24;;;;;;;;;;;2.80;99.90;;;;;;5066121;28;19956;-68
2022/11/23 00:36:00;;;;;;;;;;;2.70;99.90;;;;;;5065990;28;19952;-68
2022/11/23 00:38:27;;;;;;;;;;;2.70;99.90;;;;;;5066062;28;20231;-68
2022/11/23 00:41:04;;;;;;;;;;;2.70;99.90;;;;;;5065669;28;19941;-68
2022/11/23 00:43:30;;;;;;;;;;;2.70;99.90;;;;;;5065755;28;19959;-67
2022/11/23 00:46:04;;;;;;;;;;;2.80;99.90;;;;;;5057502;28;19989;-68
2022/11/23 00:48:30;;;;;;;;;;;2.80;99.90;;;;;;5065781;28;19980;-68
2022/11/23 00:50:57;;;;;;;;;;;2.80;99.90;;;;;;5065472;28;19988;-68
2022/11/23 00:53:25;;;;;;;;;;;2.80;99.90;;;;;;5065875;28;19956;-68
2022/11/23 00:55:52;;;;;;;;;;;2.70;99.90;;;;;;5065463;28;19983;-68
2022/11/23 00:58:19;;;;;;;;;;;2.70;99.90;;;;;;5065737;28;19924;-68
2022/11/23 01:00:45;;;;;;;;;;;2.70;99.90;;;;;;5065341;28;19974;-68
2022/11/23 01:03:12;;;;;;;;;;;2.70;99.90;;;;;;5065239;28;20027;-68
2022/11/23 01:05:39;;;;;;;;;;;2.70;99.90;;;;;;5065076;28;20276;-68
2022/11/23 01:08:06;;;;;;;;;;;2.70;99.90;;;;;;5065572;28;19956;-68
2022/11/23 01:10:34;;;;;;;;;;;2.70;99.90;;;;;;5065447;28;19979;-68
2022/11/23 01:13:01;;;;;;;;;;;2.60;99.90;;;;;;5065501;28;19963;-68
2022/11/23 01:15:27;;;;;;;;;;;2.70;99.90;;;;;;5064774;28;19980;-68
2022/11/23 01:17:54;;;;;;;;;;;2.70;99.90;;;;;;5065410;28;19956;-68
2022/11/23 01:20:21;;;;;;;;;;;2.60;99.90;;;;;;5065374;28;19984;-68
2022/11/23 01:22:47;;;;;;;;;;;2.60;99.90;;;;;;5064949;28;20194;-68
2022/11/23 01:25:14;;;;;;;;;;;2.60;99.90;;;;;;5064894;28;19988;-67
2022/11/23 01:27:42;;;;;;;;;;;2.60;99.90;;;;;;5065383;28;19988;-68
2022/11/23 01:30:09;;;;;;;;;;;2.60;99.90;;;;;;5064845;28;19952;-68
2022/11/23 01:32:36;;;;;;;;;;;2.60;99.90;;;;;;5056433;28;19924;-68
2022/11/23 01:35:02;;;;;;;;;;;2.60;99.90;;;;;;5064104;28;19927;-68
2022/11/23 01:37:29;;;;;;;;;;;2.60;99.90;;;;;;5064786;28;20194;-68
2022/11/23 01:39:56;;;;;;;;;;;2.60;99.90;;;;;;5064947;28;19987;-68
2022/11/23 01:42:22;;;;;;;;;;;2.60;99.90;;;;;;5064864;28;20004;-68
2022/11/23 01:44:51;;;;;;;;;;;2.60;99.90;;;;;;5064216;28;19952;-68
2022/11/23 01:47:18;;;;;;;;;;;2.50;99.90;;;;;;5064618;28;19948;-67
2022/11/23 01:49:46;;;;;;;;;;;2.50;99.90;;;;;;5064328;28;19984;-68
2022/11/23 01:52:16;;;;;;;;;;;2.50;99.90;;;;;;5064754;28;20007;-68
2022/11/23 01:54:44;;;;;;;;;;;2.40;99.90;;;;;;5064488;28;19984;-68
2022/11/23 01:57:13;;;;;;;;;;;2.40;99.90;;;;;;5064298;28;19936;-68
2022/11/23 01:59:40;;;;;;;;;;;2.40;99.90;;;;;;5064849;28;20192;-68
2022/11/23 02:02:08;;;;;;;;;;;2.40;99.90;;;;;;5064427;28;19984;-68
2022/11/23 02:04:36;;;;;;;;;;;2.30;99.90;;;;;;5064178;28;19956;-68
2022/11/23 02:07:03;;;;;;;;;;;2.30;99.90;;;;;;5064457;28;19952;-68
2022/11/23 02:09:30;;;;;;;;;;;2.30;99.90;;;;;;5064572;28;19987;-68
2022/11/23 02:11:57;;;;;;;;;;;2.30;99.90;;;;;;5064385;28;20160;-68
2022/11/23 02:14:24;;;;;;;;;;;2.30;99.90;;;;;;5063956;28;19955;-68
2022/11/23 02:16:51;;;;;;;;;;;2.20;99.90;;;;;;5063869;28;19952;-67
2022/11/23 02:19:25;;;;;;;;;;;2.20;99.90;;;;;;5064244;28;20153;-68
2022/11/23 02:21:52;;;;;;;;;;;2.10;99.90;;;;;;5064290;28;19984;-68
2022/11/23 02:24:23;;;;;;;;;;;2.10;99.90;;;;;;5063895;28;19992;-68
2022/11/23 02:26:51;;;;;;;;;;;2.10;99.90;;;;;;5063854;28;19952;-68
2022/11/23 02:29:20;;;;;;;;;;;2.00;99.90;;;;;;5044225;28;19963;-68
2022/11/23 02:31:47;;;;;;;;;;;2.00;99.90;;;;;;5051039;28;19952;-68
2022/11/23 02:34:13;;;;;;;;;;;2.00;99.90;;;;;;5063982;28;19959;-68
2022/11/23 02:36:40;;;;;;;;;;;2.00;99.90;;;;;;5063789;28;20157;-68
2022/11/23 02:39:09;;;;;;;;;;;2.00;99.90;;;;;;5063983;28;19984;-68
2022/11/23 02:41:37;;;;;;;;;;;2.10;99.90;;;;;;5063936;28;20000;-67
2022/11/23 02:44:07;;;;;;;;;;;2.10;99.90;;;;;;5063465;28;19992;-68
2022/11/23 02:46:34;;;;;;;;;;;2.10;99.90;;;;;;5062641;28;19979;-68
2022/11/23 02:49:00;;;;;;;;;;;2.10;99.90;;;;;;5063718;28;19952;-68
2022/11/23 02:51:27;;;;;;;;;;;2.10;99.90;;;;;;5063783;28;19956;-68
2022/11/23 02:53:53;;;;;;;;;;;2.10;99.90;;;;;;5063464;28;20205;-68
2022/11/23 02:56:20;;;;;;;;;;;2.10;99.90;;;;;;5063538;28;20239;-68
2022/11/23 02:58:47;;;;;;;;;;;2.10;99.90;;;;;;5063703;28;19920;-68
2022/11/23 03:01:15;;;;;;;;;;;2.10;99.90;;;;;;5061099;28;19992;-68
2022/11/23 03:03:41;;;;;;;;;;;2.10;99.90;;;;;;5063465;28;19992;-68
2022/11/23 03:06:08;;;;;;;;;;;2.10;99.90;;;;;;5063937;28;19983;-68
2022/11/23 03:08:34;;;;;;;;;;;2.00;99.90;;;;;;5064033;28;19987;-68
2022/11/23 03:11:01;;;;;;;;;;;2.00;99.90;;;;;;5063526;28;19987;-68
2022/11/23 03:13:28;;;;;;;;;;;2.00;99.90;;;;;;5063658;28;19968;-68
2022/11/23 03:15:55;;;;;;;;;;;2.00;99.90;;;;;;5062893;28;19921;-68
2022/11/23 03:18:23;;;;;;;;;;;2.00;99.90;;;;;;5047703;28;20166;-68
2022/11/23 03:20:50;;;;;;;;;;;2.00;99.90;;;;;;5063546;28;20083;-68
2022/11/23 03:23:17;;;;;;;;;;;2.00;99.90;;;;;;5063270;28;20239;-68
2022/11/23 03:25:43;;;;;;;;;;;2.00;99.90;;;;;;5063184;28;19953;-68
2022/11/23 03:28:10;;;;;;;;;;;2.00;99.90;;;;;;5063419;28;19956;-68
2022/11/23 03:30:37;;;;;;;;;;;1.90;99.90;;;;;;5066624;23;20615;-69
2022/11/23 03:33:03;;;;;;;;;;;1.90;99.90;;;;;;5060991;28;20208;-68
2022/11/23 03:35:31;;;;;;;;;;;1.90;99.90;;;;;;5063020;28;20277;-68
2022/11/23 03:37:58;;;;;;;;;;;1.90;99.90;;;;;;5063312;28;19987;-68
2022/11/23 03:40:24;;;;;;;;;;;1.90;99.90;;;;;;5063218;28;19952;-68
2022/11/23 03:42:51;;;;;;;;;;;1.90;99.90;;;;;;5063244;28;20307;-68
2022/11/23 03:45:18;;;;;;;;;;;1.90;99.90;;;;;;5058372;28;20236;-68
2022/11/23 03:47:44;;;;;;;;;;;1.90;99.90;;;;;;5043230;28;19993;-68
2022/11/23 03:50:11;;;;;;;;;;;2.00;99.90;;;;;;5043236;28;19921;-68
2022/11/23 03:52:39;;;;;;;;;;;1.90;99.90;;;;;;5043099;28;19948;-68
2022/11/23 03:55:06;;;;;;;;;;;1.90;99.90;;;;;;5042880;28;19984;-68
2022/11/23 03:57:33;;;;;;;;;;;1.90;99.90;;;;;;5043142;28;19993;-69
2022/11/23 03:59:59;;;;;;;;;;;1.90;99.90;;;;;;5046539;28;19995;-68
2022/11/23 04:02:26;;;;;;;;;;;1.90;99.90;;;;;;5039780;28;20176;-68
2022/11/23 04:04:53;;;;;;;;;;;1.90;99.90;;;;;;5046191;28;20108;-68
2022/11/23 04:07:19;;;;;;;;;;;1.90;99.90;;;;;;5046861;28;20011;-68
2022/11/23 04:09:47;;;;;;;;;;;1.90;99.90;;;;;;5046349;28;20262;-68
2022/11/23 04:12:14;;;;;;;;;;;1.90;99.90;;;;;;5046574;28;19963;-68
2022/11/23 04:14:40;;;;;;;;;;;1.90;99.90;;;;;;5046176;28;19983;-67
2022/11/23 04:17:07;;;;;;;;;;;1.90;99.90;;;;;;5047827;28;19984;-68
2022/11/23 04:19:34;;;;;;;;;;;1.90;99.90;;;;;;5052478;28;19956;-68
2022/11/23 04:22:00;;;;;;;;;;;1.90;99.90;;;;;;5046028;28;19993;-68
2022/11/23 04:24:27;;;;;;;;;;;2.00;99.90;;;;;;5046268;28;19995;-68
2022/11/23 04:26:55;;;;;;;;;;;2.00;99.90;;;;;;5046108;28;20003;-68
2022/11/23 04:29:21;;;;;;;;;;;2.00;99.90;;;;;;5045975;28;20303;-68
2022/11/23 04:31:48;;;;;;;;;;;2.00;99.90;;;;;;5045464;28;19984;-68
2022/11/23 04:34:15;;;;;;;;;;;2.00;99.90;;;;;;5046142;28;19922;-68
2022/11/23 04:36:41;;;;;;;;;;;2.00;99.90;;;;;;5045650;28;19984;-68
2022/11/23 04:39:08;;;;;;;;;;;2.10;99.90;;;;;;5046039;28;19988;-68
2022/11/23 04:41:35;;;;;;;;;;;2.10;99.90;;;;;;5046021;28;19992;-68
2022/11/23 04:44:02;;;;;;;;;;;2.10;99.90;;;;;;5046029;28;20000;-68
2022/11/23 04:46:29;;;;;;;;;;;2.10;99.90;;;;;;5045134;28;19948;-68
2022/11/23 04:48:56;;;;;;;;;;;2.20;99.90;;;;;;5045955;28;20167;-68
2022/11/23 04:51:22;;;;;;;;;;;2.20;99.90;;;;;;5046000;28;19956;-68
2022/11/23 04:53:49;;;;;;;;;;;2.20;99.90;;;;;;5046065;28;19963;-68
2022/11/23 04:56:16;;;;;;;;;;;2.20;99.90;;;;;;5045777;28;19952;-68
2022/11/23 04:58:42;;;;;;;;;;;2.20;99.90;;;;;;5046036;28;20031;-68
2022/11/23 05:01:10;;;;;;;;;;;2.20;99.90;;;;;;5044768;28;20299;-68
2022/11/23 05:03:37;;;;;;;;;;;2.10;99.90;;;;;;5045670;28;20000;-68
2022/11/23 05:06:04;;;;;;;;;;;2.10;99.90;;;;;;5045434;28;20008;-69
2022/11/23 05:08:31;;;;;;;;;;;2.10;99.90;;;;;;5045622;28;20199;-68
2022/11/23 05:10:57;;;;;;;;;;;2.10;99.90;;;;;;5044819;28;19959;-68
2022/11/23 05:13:24;;;;;;;;;;;2.10;99.90;;;;;;5045831;28;19949;-68
2022/11/23 05:15:51;;;;;;;;;;;2.10;99.90;;;;;;5044932;28;19988;-68
2022/11/23 05:18:19;;;;;;;;;;;2.10;99.90;;;;;;5049389;28;19988;-68
2022/11/23 05:20:46;;;;;;;;;;;2.10;99.90;;;;;;5053168;28;19990;-68
2022/11/23 05:23:13;;;;;;;;;;;2.10;99.90;;;;;;5045159;28;20279;-68
2022/11/23 05:25:39;;;;;;;;;;;2.10;99.90;;;;;;5044892;28;20176;-68
2022/11/23 05:28:06;;;;;;;;;;;2.20;99.90;;;;;;5045354;28;20000;-68
2022/11/23 05:30:33;;;;;;;;;;;2.20;99.90;;;;;;5044399;28;19953;-68
2022/11/23 05:33:00;;;;;;;;;;;2.20;99.90;;;;;;5044916;28;20259;-68
2022/11/23 05:35:28;;;;;;;;;;;2.30;99.90;;;;;;5044781;28;19936;-69
2022/11/23 05:37:55;;;;;;;;;;;2.30;99.90;;;;;;5045113;28;19925;-68
2022/11/23 05:40:22;;;;;;;;;;;2.40;99.90;;;;;;5045054;28;19948;-71
2022/11/23 05:42:48;;;;;;;;;;;2.40;99.90;;;;;;5044879;28;19984;-69
2022/11/23 05:45:15;;;;;;;;;;;2.40;99.90;;;;;;5043733;28;19979;-69
2022/11/23 05:47:42;;;;;;;;;;;2.30;99.90;;;;;;5041475;28;20163;-69
2022/11/23 05:50:09;;;;;;;;;;;2.30;99.90;;;;;;5044746;28;19976;-68
2022/11/23 05:52:37;;;;;;;;;;;2.30;99.90;;;;;;5037051;28;19921;-68
2022/11/23 05:55:04;;;;;;;;;;;2.40;99.90;;;;;;5064366;28;19984;-68
2022/11/23 05:57:30;;;;;;;;;;;2.40;99.90;;;;;;5045120;28;20260;-68
2022/11/23 05:59:57;;;;;;;;;;;2.40;99.90;;;;;;5044651;28;19967;-68
2022/11/23 06:02:23;;;;;;;;;;;2.40;99.90;;;;;;5043946;28;20224;-67
2022/11/23 06:04:50;;;;;;;;;;;2.40;99.90;;;;;;5043810;28;19988;-67
2022/11/23 06:07:17;;;;;;;;;;;2.40;99.90;;;;;;5044332;28;19993;-67
2022/11/23 06:09:45;;;;;;;;;;;2.40;99.90;;;;;;5044153;28;19992;-67
2022/11/23 06:12:11;;;;;;;;;;;2.40;99.90;;;;;;5044185;28;20205;-67
2022/11/23 06:14:38;;;;;;;;;;;2.50;99.90;;;;;;5043944;28;20068;-67
2022/11/23 06:17:05;;;;;;;;;;;2.50;99.90;;;;;;5046633;28;19948;-68
2022/11/23 06:19:31;;;;;;;;;;;2.50;99.90;;;;;;5050381;28;19972;-68
2022/11/23 06:21:58;;;;;;;;;;;2.50;99.90;;;;;;5043961;28;19928;-71
2022/11/23 06:24:25;;;;;;;;;;;2.50;99.90;;;;;;5038367;28;19984;-72
2022/11/23 06:26:53;;;;;;;;;;;2.50;99.90;;;;;;5043825;28;19988;-74
2022/11/23 06:29:19;;;;;;;;;;;2.50;99.90;;;;;;5044295;28;19948;-69
2022/11/23 06:31:46;;;;;;;;;;;2.60;99.90;;;;;;5036441;28;19988;-69
2022/11/23 06:34:13;;;;;;;;;;;2.60;99.90;;;;;;5043149;28;19960;-69
2022/11/23 06:36:39;;;;;;;;;;;2.60;99.90;;;;;;5043643;28;19993;-69
2022/11/23 06:39:06;;;;;;;;;;;2.60;99.90;;;;;;5043729;28;19980;-68
2022/11/23 06:41:32;;;;;;;;;;;2.60;99.90;;;;;;5043014;28;19941;-69
2022/11/23 06:44:00;;;;;;;;;;;2.60;99.90;;;;;;5043742;28;19988;-69
2022/11/23 06:46:27;;;;;;;;;;;2.70;99.90;;;;;;5038853;28;19960;-68
2022/11/23 06:48:54;;;;;;;;;;;2.70;99.90;;;;;;5040672;28;19971;-68
2022/11/23 06:51:20;;;;;;;;;;;2.70;99.90;;;;;;5043619;28;19961;-69
2022/11/23 06:53:47;;;;;;;;;;;2.70;99.90;;;;;;5043795;28;19953;-68
2022/11/23 06:56:13;;;;;;;;;;;2.80;99.90;;;;;;5043322;28;19949;-68
2022/11/23 06:58:40;;;;;;;;;;;2.80;99.90;;;;;;5043970;28;19948;-69
2022/11/23 07:01:09;;;;;;;;;;;2.80;99.90;;;;;;5043109;28;19959;-69
2022/11/23 07:03:36;;;;;;;;;;;2.80;99.90;;;;;;5043343;28;19953;-68
2022/11/23 07:06:04;;;;;;;;;;;2.80;99.90;;;;;;5043377;28;19983;-68
2022/11/23 07:08:30;;;;;;;;;;;2.80;99.90;;;;;;5043423;28;19959;-68
2022/11/23 07:10:59;;;;;;;;;;;2.90;99.90;;;;;;5043441;28;19921;-69
2022/11/23 07:13:26;;;;;;;;;;;2.90;99.90;;;;;;5043612;28;19984;-68
2022/11/23 07:15:52;;;;;;;;;;;2.90;99.90;;;;;;5042767;28;19993;-69
2022/11/23 07:18:20;;;;;;;;;;;2.90;99.90;;;;;;5043579;28;19959;-68
2022/11/23 07:20:47;;;;;;;;;;;2.90;99.90;;;;;;5043604;28;20014;-69
2022/11/23 07:23:14;;;;;;;;;;;2.90;99.90;;;;;;5043293;28;19955;-68
2022/11/23 07:25:40;;;;;;;;;;;3.00;99.90;;;;;;5043260;28;19996;-68
2022/11/23 07:28:07;;;;;;;;;;;3.00;99.90;;;;;;5043503;28;19952;-69
2022/11/23 07:30:35;;;;;;;;;;;3.00;99.90;;;;;;5042251;28;20220;-69
2022/11/23 07:33:01;;;;;;;;;;;3.00;99.90;;;;;;5044010;28;19959;-68
2022/11/23 07:35:30;;;;;;;;;;;3.10;99.90;;;;;;5047028;28;20144;-69
2022/11/23 07:37:57;;;;;;;;;;;3.10;99.90;;;;;;5047356;28;19921;-68
2022/11/23 07:40:23;;;;;;;;;;;3.10;99.90;;;;;;5047089;28;19992;-68
2022/11/23 07:42:50;;;;;;;;;;;3.10;99.90;;;;;;5046813;28;19988;-68
2022/11/23 07:45:16;;;;;;;;;;;3.20;99.90;;;;;;5046168;28;19960;-68
2022/11/23 07:47:43;;;;;;;;;;;3.20;99.90;;;;;;5047228;28;20145;-68
2022/11/23 07:50:11;;;;;;;;;;;3.30;99.90;;;;;;5047189;28;19987;-69
2022/11/23 07:52:39;;;;;;;;;;;3.30;99.90;;;;;;5046979;28;19991;-69
2022/11/23 07:55:06;;;;;;;;;;;3.30;99.90;;;;;;5046712;28;19988;-68
2022/11/23 07:57:32;;;;;;;;;;;3.40;99.90;;;;;;5046712;28;19984;-68
2022/11/23 07:59:59;;;;;;;;;;;3.40;99.90;;;;;;5046769;28;20059;-68
2022/11/23 08:02:26;;;;;;;;;;;3.40;99.90;;;;;;5033223;28;20259;-69
2022/11/23 08:04:52;;;;;;;;;;;3.50;99.90;;;;;;5046286;28;19987;-69
2022/11/23 08:07:19;;;;;;;;;;;3.50;99.90;;;;;;5046791;28;19960;-69
2022/11/23 08:09:47;;;;;;;;;;;3.50;99.90;;;;;;5046507;28;19963;-69
2022/11/23 08:12:13;;;;;;;;;;;3.60;99.90;;;;;;5034776;28;19985;-69
2022/11/23 08:14:40;;;;;;;;;;;3.60;99.90;;;;;;5026251;28;19960;-69
2022/11/23 08:17:07;;;;;;;;;;;3.60;99.90;;;;;;5043198;28;19928;-70
2022/11/23 08:19:34;;;;;;;;;;;3.60;99.90;;;;;;5046576;28;19928;-69
2022/11/23 08:22:00;;;;;;;;;;;3.70;99.90;;;;;;5046386;28;19957;-69
2022/11/23 08:24:27;;;;;;;;;;;3.70;99.90;;;;;;5046109;28;19968;-69
2022/11/23 08:26:55;;;;;;;;;;;3.70;99.90;;;;;;5045926;28;19944;-69
2022/11/23 08:29:22;;;;;;;;;;;3.80;99.90;;;;;;5046310;28;19992;-69
2022/11/23 08:31:49;;;;;;;;;;;3.80;99.90;;;;;;5045395;28;19976;-69
2022/11/23 08:34:25;;;;;;;;;;;3.90;99.90;;;;;;5044797;28;20268;-68
2022/11/23 08:36:51;;;;;;;;;;;3.90;99.90;;;;;;5045870;28;19956;-69
2022/11/23 08:39:18;;;;;;;;;;;4.00;99.90;;;;;;5046139;28;19963;-68
2022/11/23 08:41:45;;;;;;;;;;;4.00;99.90;;;;;;5046070;28;19980;-69
2022/11/23 08:44:12;;;;;;;;;;;4.10;99.90;;;;;;5045888;28;19984;-69
2022/11/23 08:46:39;;;;;;;;;;;4.10;99.90;;;;;;5045108;28;19991;-69
2022/11/23 08:49:06;;;;;;;;;;;4.20;99.90;;;;;;5045397;28;19999;-69
2022/11/23 08:51:33;;;;;;;;;;;4.20;99.90;;;;;;5045918;28;19921;-69
2022/11/23 08:54:00;;;;;;;;;;;4.30;99.90;;;;;;5045822;28;20029;-69
2022/11/23 08:56:27;;;;;;;;;;;4.30;99.90;;;;;;5045636;28;20172;-69
2022/11/23 08:58:54;;;;;;;;;;;4.30;99.90;;;;;;5045805;28;20176;-69
2022/11/23 09:01:22;;;;;;;;;;;4.40;99.90;;;;;;5045097;28;19983;-69
2022/11/23 09:03:49;;;;;;;;;;;4.40;99.90;;;;;;5045683;28;20144;-69
2022/11/23 09:06:15;;;;;;;;;;;4.40;99.90;;;;;;5045350;28;20148;-69
2022/11/23 09:08:42;;;;;;;;;;;4.50;99.90;;;;;;5045774;28;20001;-69
2022/11/23 09:11:11;;;;;;;;;;;4.50;99.90;;;;;;5033907;28;19971;-69
2022/11/23 09:13:38;;;;;;;;;;;4.60;99.90;;;;;;5025502;28;20000;-69
2022/11/23 09:16:06;;;;;;;;;;;4.70;99.90;;;;;;5033834;28;20176;-69
2022/11/23 09:18:35;;;;;;;;;;;4.70;99.90;;;;;;5045173;28;20259;-69
2022/11/23 09:21:03;;;;;;;;;;;4.80;99.90;;;;;;5045271;28;19944;-70
2022/11/23 09:23:29;;;;;;;;;;;4.80;99.90;;;;;;5045396;28;19927;-69
2022/11/23 09:25:57;;;;;;;;;;;4.90;99.90;;;;;;5044679;28;19952;-69
2022/11/23 09:28:26;;;;;;;;;;;5.00;99.90;;;;;;5045347;28;19952;-69
2022/11/23 09:30:53;;;;;;;;;;;5.00;99.90;;;;;;5044154;28;19928;-69
2022/11/23 09:33:20;;;;;;;;;;;5.10;99.90;;;;;;5044887;28;19971;-69
2022/11/23 09:35:48;;;;;;;;;;;5.10;99.90;;;;;;5044509;28;19994;-69
2022/11/23 09:38:14;;;;;;;;;;;5.20;99.90;;;;;;5045107;28;19993;-72
2022/11/23 09:40:41;;;;;;;;;;;5.30;99.90;;;;;;5044778;28;20292;-69
2022/11/23 09:43:15;;;;;;;;;;;5.30;99.90;;;;;;5045175;28;19988;-69
2022/11/23 09:45:45;;;;;;;;;;;5.40;99.90;;;;;;5058057;23;19944;-71
2022/11/23 09:48:22;;;;;;;;;;;5.50;99.90;;;;;;5036440;28;19992;-71
2022/11/23 09:50:52;;;;;;;;;;;5.50;99.90;;;;;;5045016;28;19921;-71
2022/11/23 09:53:21;;;;;;;;;;;5.60;99.90;;;;;;5044728;28;19928;-71
2022/11/23 09:55:48;;;;;;;;;;;5.60;99.90;;;;;;5043743;28;19988;-71
2022/11/23 09:58:16;;;;;;;;;;;5.70;99.90;;;;;;5044907;28;19988;-70
2022/11/23 10:00:46;;;;;;;;;;;5.80;99.90;;;;;;5042349;28;19956;-71
2022/11/23 10:03:14;;;;;;;;;;;5.80;99.90;;;;;;5043711;28;20263;-71
2022/11/23 10:05:44;;;;;;;;;;;5.90;99.90;;;;;;5044260;28;20115;-70
2022/11/23 10:08:17;;;;;;;;;;;6.00;99.90;;;;;;5044711;28;19929;-70
2022/11/23 10:10:49;;;;;;;;;;;6.10;99.90;;;;;;5044604;28;19921;-70
2022/11/23 10:13:32;;;;;;;;;;;6.20;99.90;;;;;;5044648;28;20167;-69
2022/11/23 10:16:04;;;;;;;;;;;6.30;99.90;;;;;;5043448;28;20268;-69
2022/11/23 10:18:36;;;;;;;;;;;6.40;99.90;;;;;;5044406;28;19952;-70
2022/11/23 10:21:06;;;;;;;;;;;6.40;99.90;;;;;;5044334;28;19993;-70
2022/11/23 10:23:44;;;;;;;;;;;6.50;99.90;;;;;;5044436;28;19955;-71
2022/11/23 10:26:13;;;;;;;;;;;6.70;99.90;;;;;;5044012;28;19967;-70
2022/11/23 10:28:39;;;;;;;;;;;6.90;99.90;;;;;;5044084;28;20204;-70
2022/11/23 10:31:13;;;;;;;;;;;7.20;99.90;;;;;;5043475;28;19988;-69
2022/11/23 10:33:45;;;;;;;;;;;7.50;99.90;;;;;;5044028;28;19952;-70
2022/11/23 10:36:12;;;;;;;;;;;7.80;99.90;;;;;;5043694;28;20259;-70
2022/11/23 10:38:41;;;;;;;;;;;8.00;99.90;;;;;;5044234;28;20165;-71
2022/11/23 10:41:09;;;;;;;;;;;8.30;99.90;;;;;;5044200;28;20169;-70
2022/11/23 10:43:38;;;;;;;;;;;8.60;99.90;;;;;;5043902;28;19928;-71
2022/11/23 10:46:24;;;;;;;;;;;8.70;99.90;;;;;;5043139;28;19980;-70
2022/11/23 10:48:51;;;;;;;;;;;8.90;99.90;;;;;;5044404;28;19952;-70
2022/11/23 10:51:23;;;;;;;;;;;9.20;99.90;;;;;;5044033;28;19975;-71
2022/11/23 10:53:53;;;;;;;;;;;9.30;99.90;;;;;;5044001;28;19988;-71
2022/11/23 10:56:20;;;;;;;;;;;9.40;99.90;;;;;;5043730;28;19990;-71
2022/11/23 10:58:46;;;;;;;;;;;9.50;99.90;;;;;;5043808;28;20156;-71
2022/11/23 11:01:14;;;;;;;;;;;9.60;99.90;;;;;;5043156;28;20007;-71
2022/11/23 11:03:41;;;;;;;;;;;9.70;99.90;;;;;;5043800;28;20115;-71
2022/11/23 11:06:07;;;;;;;;;;;9.80;99.90;;;;;;5043481;28;20179;-71
2022/11/23 11:08:35;;;;;;;;;;;9.90;99.90;;;;;;5045323;28;19996;-71
2022/11/23 11:11:05;;;;;;;;;;;9.80;99.90;;;;;;5048000;28;19992;-70
2022/11/23 11:13:32;;;;;;;;;;;9.90;99.90;;;;;;5047656;28;19960;-70
2022/11/23 11:16:00;;;;;;;;;;;10.00;99.90;;;;;;5046828;28;19949;-70
2022/11/23 11:18:28;;;;;;;;;;;10.30;99.90;;;;;;5047733;28;19949;-70
2022/11/23 11:20:56;;;;;;;;;;;10.30;99.90;;;;;;5046735;28;19925;-70
2022/11/23 11:23:23;;;;;;;;;;;10.40;99.90;;;;;;5047800;28;19961;-70
2022/11/23 11:25:51;;;;;;;;;;;10.40;99.90;;;;;;5047225;28;19984;-70
2022/11/23 11:28:25;;;;;;;;;;;10.40;99.90;;;;;;5047768;28;19943;-70
2022/11/23 11:31:18;;;;;;;;;;;10.40;99.90;;;;;;5046350;28;19980;-70
2022/11/23 11:33:47;;;;;;;;;;;10.20;99.90;;;;;;5047563;28;19956;-72
2022/11/23 11:36:16;;;;;;;;;;;10.20;99.90;;;;;;5047400;28;20153;-70
2022/11/23 11:38:46;;;;;;;;;;;10.10;99.90;;;;;;5047644;28;20186;-70
2022/11/23 11:41:15;;;;;;;;;;;10.20;99.90;;;;;;5046541;28;19929;-71
2022/11/23 11:43:45;;;;;;;;;;;10.30;99.90;;;;;;5047536;28;19964;-70
2022/11/23 11:46:14;;;;;;;;;;;10.40;99.90;;;;;;5046235;28;19932;-70
2022/11/23 11:48:42;;;;;;;;;;;10.50;99.90;;;;;;5047208;28;20016;-71
2022/11/23 11:51:11;;;;;;;;;;;10.60;99.90;;;;;;5047030;28;20295;-71
2022/11/23 11:53:41;;;;;;;;;;;10.70;99.90;;;;;;5047336;28;19963;-71
2022/11/23 11:56:12;;;;;;;;;;;10.90;99.90;;;;;;5046447;28;19921;-71
2022/11/23 11:58:40;;;;;;;;;;;10.90;99.90;;;;;;5047182;28;19994;-71
2022/11/23 12:01:13;;;;;;;;;;;11.10;99.90;;;;;;5046598;28;19988;-71
2022/11/23 12:03:41;;;;;;;;;;;11.20;99.90;;;;;;5047039;28;19993;-71
2022/11/23 12:06:11;;;;;;;;;;;11.20;99.90;;;;;;5046469;28;19920;-71
2022/11/23 12:08:43;;;;;;;;;;;11.10;99.90;;;;;;5045523;28;19952;-72
2022/11/23 12:11:11;;;;;;;;;;;11.30;99.90;;;;;;5046909;28;19987;-71
2022/11/23 12:13:39;;;;;;;;;;;11.40;99.90;;;;;;5046598;28;19988;-72
2022/11/23 12:16:10;;;;;;;;;;;11.60;99.90;;;;;;5046027;28;19984;-71
2022/11/23 12:18:42;;;;;;;;;;;11.70;99.90;;;;;;5046028;28;19927;-72
2022/11/23 12:21:14;;;;;;;;;;;11.90;99.90;;;;;;5046489;28;19952;-72
2022/11/23 12:23:48;;;;;;;;;;;12.00;99.90;;;;;;5046785;28;19995;-71
2022/11/23 12:26:19;;;;;;;;;;;12.10;99.90;;;;;;5046276;28;20256;-70
2022/11/23 12:28:57;;;;;;;;;;;12.20;99.90;;;;;;5046622;28;19984;-71
2022/11/23 12:31:30;;;;;;;;;;;12.20;99.90;;;;;;5045740;28;19957;-71
2022/11/23 12:34:07;;;;;;;;;;;12.30;99.90;;;;;;5046407;28;19987;-71
2022/11/23 12:36:51;;;;;;;;;;;12.40;99.90;;;;;;5046133;28;19989;-71
2022/11/23 12:39:27;;;;;;;;;;;12.40;99.90;;;;;;5046422;28;20044;-71
2022/11/23 12:41:56;;;;;;;;;;;12.40;99.90;;;;;;5046295;28;19929;-70
2022/11/23 12:44:40;;;;;;;;;;;12.50;99.90;;;;;;5046147;28;19959;-71
2022/11/23 12:47:12;;;;;;;;;;;12.60;99.90;;;;;;5045192;28;19996;-70
2022/11/23 12:49:43;;;;;;;;;;;12.70;99.90;;;;;;5046185;28;20171;-70
2022/11/23 12:52:20;;;;;;;;;;;12.80;99.90;;;;;;5046190;28;19925;-70
2022/11/23 12:54:53;;;;;;;;;;;12.60;99.90;;;;;;5045683;28;19986;-71
2022/11/23 12:57:21;;;;;;;;;;;12.70;99.90;;;;;;5046103;28;19988;-70
2022/11/23 12:59:50;;;;;;;;;;;12.30;99.90;;;;;;5046162;28;19959;-70
2022/11/23 13:02:30;;;;;;;;;;;12.20;99.90;;;;;;5043784;28;19985;-71
2022/11/23 13:05:12;;;;;;;;;;;12.40;99.90;;;;;;5045675;28;19984;-70
2022/11/23 13:07:46;;;;;;;;;;;12.50;99.90;;;;;;5023777;28;19992;-71
2022/11/23 13:10:16;;;;;;;;;;;12.50;99.90;;;;;;5032193;28;19956;-75
2022/11/23 13:12:49;;;;;;;;;;;12.50;99.90;;;;;;5045955;28;19936;-71
2022/11/23 13:15:21;;;;;;;;;;;12.60;99.90;;;;;;5044369;28;19984;-70
2022/11/23 13:17:52;;;;;;;;;;;12.70;99.90;;;;;;5041817;28;20171;-70
2022/11/23 13:20:30;;;;;;;;;;;12.70;99.90;;;;;;5044219;28;20000;-70
2022/11/23 13:22:58;;;;;;;;;;;12.70;99.90;;;;;;5045186;28;19988;-70
2022/11/23 13:25:25;;;;;;;;;;;12.70;99.90;;;;;;5043377;28;19984;-70
2022/11/23 13:28:02;;;;;;;;;;;12.60;99.90;;;;;;5044549;28;20187;-71
2022/11/23 13:30:33;;;;;;;;;;;12.60;99.90;;;;;;5044095;28;19948;-72
2022/11/23 13:33:02;;;;;;;;;;;12.60;99.90;;;;;;5046460;28;20231;-71
2022/11/23 13:35:59;;;;;;;;;;;12.60;99.90;;;;;;5046385;28;19975;-71
2022/11/23 13:38:42;;;;;;;;;;;12.50;99.90;;;;;;4986147;28;19989;-71
2022/11/23 13:41:27;;;;;;;;;;;12.40;99.90;;;;;;5037189;28;19921;-71
2022/11/23 13:43:54;;;;;;;;;;;12.20;99.90;;;;;;5044991;28;20284;-71
2022/11/23 13:46:22;;;;;;;;;;;11.90;99.90;;;;;;5043557;28;19983;-70
2022/11/23 13:48:51;;;;;;;;;;;11.60;99.90;;;;;;5044893;28;19925;-70
2022/11/23 13:51:24;;;;;;;;;;;11.30;99.90;;;;;;5044848;28;19959;-71
2022/11/23 13:53:53;;;;;;;;;;;11.00;99.90;;;;;;5044650;28;19928;-70
2022/11/23 13:56:26;;;;;;;;;;;10.80;99.90;;;;;;5044346;28;19992;-70
2022/11/23 13:58:53;;;;;;;;;;;10.60;99.90;;;;;;5044508;28;19921;-70
2022/11/23 14:01:39;;;;;;;;;;;10.40;99.90;;;;;;5044028;28;19979;-70
2022/11/23 14:04:20;;;;;;;;;;;10.20;99.90;;;;;;5044558;28;19984;-71
2022/11/23 14:06:50;;;;;;;;;;;10.10;99.90;;;;;;5044370;28;19956;-70
2022/11/23 14:09:19;;;;;;;;;;;10.10;99.90;;;;;;5044548;28;20085;-71
2022/11/23 14:11:52;;;;;;;;;;;10.00;99.90;;;;;;5044271;28;19988;-71
2022/11/23 14:14:21;;;;;;;;;;;10.00;99.90;;;;;;5044839;28;19993;-71
2022/11/23 14:16:56;;;;;;;;;;;10.00;99.90;;;;;;5043692;28;20112;-71
2022/11/23 14:19:27;;;;;;;;;;;10.00;99.90;;;;;;5037124;28;19921;-70
2022/11/23 14:21:57;;;;;;;;;;;10.00;99.90;;;;;;5044403;28;19975;-71
2022/11/23 14:24:47;;;;;;;;;;;10.00;99.90;;;;;;5043087;28;20285;-71
2022/11/23 14:27:26;;;;;;;;;;;9.90;99.90;;;;;;5043548;28;20170;-69
2022/11/23 14:30:02;;;;;;;;;;;9.90;99.90;;;;;;5044027;28;19989;-70
2022/11/23 14:32:35;;;;;;;;;;;9.90;99.90;;;;;;5043646;28;19993;-70
2022/11/23 14:35:12;;;;;;;;;;;9.90;99.90;;;;;;5043380;28;19988;-70